createdAt,value
2019-02-02T00:00:58.609Z,95415.36
2019-02-02T00:03:30.781Z,95409.50
2019-02-02T00:06:02.937Z,95403.27
2019-02-02T00:08:34.952Z,95403.27
2019-02-02T00:11:07.310Z,95415.59
2019-02-02T00:13:38.005Z,95412.72
2019-02-02T00:16:10.324Z,95411.63
2019-02-02T00:18:42.348Z,95403.45
2019-02-02T00:21:13.258Z,95412.89
2019-02-02T00:23:45.324Z,95416.25
2019-02-02T00:26:16.075Z,95416.62
2019-02-02T00:31:39.097Z,95411.17
2019-02-02T00:34:11.283Z,95411.17
2019-02-02T00:36:41.870Z,95408.56
2019-02-02T00:39:14.147Z,95411.30
2019-02-02T00:41:44.866Z,95409.05
2019-02-02T00:44:16.961Z,95412.81
2019-02-02T00:46:48.950Z,95412.81
2019-02-02T00:49:20.962Z,95419.66
2019-02-02T00:51:53.128Z,95425.52
2019-02-02T00:54:23.811Z,95433.16
2019-02-02T00:56:55.953Z,95425.47
2019-02-02T00:59:27.957Z,95419.81
2019-02-02T01:01:59.958Z,95424.91
2019-02-02T01:04:31.961Z,95439.88
2019-02-02T01:07:04.016Z,95443.50
2019-02-02T01:09:36.285Z,95440.19
2019-02-02T01:12:06.685Z,95434.95
2019-02-02T01:14:38.779Z,95434.95
2019-02-02T01:17:11.256Z,95440.14
2019-02-02T01:19:42.041Z,95439.20
2019-02-02T01:22:14.257Z,95443.68
2019-02-02T01:24:44.654Z,95436.08
2019-02-02T01:27:19.797Z,95429.53
2019-02-02T01:29:51.951Z,95427.69
2019-02-02T01:32:23.949Z,95409.33
2019-02-02T01:34:56.058Z,95398.77
2019-02-02T01:37:26.868Z,95394.98
2019-02-02T01:39:59.283Z,95394.22
2019-02-02T01:42:29.850Z,95420.50
2019-02-02T01:45:01.964Z,95423.20
2019-02-02T01:47:34.162Z,95421.14
2019-02-02T01:50:04.828Z,95416.03
2019-02-02T01:52:36.951Z,95406.02
2019-02-02T01:55:10.740Z,95402.30
2019-02-02T01:57:42.948Z,95393.47
2019-02-02T02:00:25.680Z,95388.98
2019-02-02T02:02:57.941Z,95390.08
2019-02-02T02:05:30.085Z,95388.09
2019-02-02T02:08:01.020Z,95391.30
2019-02-02T02:10:33.183Z,95393.51
2019-02-02T02:13:03.868Z,95381.47
2019-02-02T02:15:36.134Z,95393.83
2019-02-02T02:18:08.319Z,95401.62
2019-02-02T02:20:38.904Z,95415.44
2019-02-02T02:23:10.959Z,95424.24
2019-02-02T02:25:43.113Z,95418.58
2019-02-02T02:28:15.289Z,95428.15
2019-02-02T02:30:47.486Z,95438.23
2019-02-02T02:33:19.945Z,95446.30
2019-02-02T02:35:52.136Z,95457.40
2019-02-02T02:38:22.898Z,95459.73
2019-02-02T02:40:54.959Z,95455.30
2019-02-02T02:43:26.959Z,95442.44
2019-02-02T02:45:59.277Z,95438.79
2019-02-02T02:48:29.703Z,95438.67
2019-02-02T02:51:01.901Z,95437.86
2019-02-02T02:53:33.954Z,95427.79
2019-02-02T02:56:06.330Z,95412.19
2019-02-02T02:58:41.681Z,95412.91
2019-02-02T03:01:12.305Z,95412.91
2019-02-02T03:03:44.288Z,95415.61
2019-02-02T03:06:14.782Z,95422.69
2019-02-02T03:08:46.887Z,95423.64
2019-02-02T03:11:19.147Z,95439.77
2019-02-02T03:13:51.590Z,95439.77
2019-02-02T03:16:23.720Z,95440.94
2019-02-02T03:18:56.163Z,95431.09
2019-02-02T03:21:28.282Z,95438.20
2019-02-02T03:24:00.293Z,95452.08
2019-02-02T03:26:30.875Z,95457.44
2019-02-02T03:29:02.965Z,95457.44
2019-02-02T03:31:34.975Z,95452.33
2019-02-02T03:34:07.283Z,95436.00
2019-02-02T03:36:37.816Z,95445.91
2019-02-02T03:39:14.141Z,95450.97
2019-02-02T03:41:44.914Z,95442.92
2019-02-02T03:44:17.143Z,95436.61
2019-02-02T03:46:49.280Z,95435.80
2019-02-02T03:49:19.869Z,95444.70
2019-02-02T03:51:51.958Z,95450.78
2019-02-02T03:54:24.327Z,95439.17
2019-02-02T03:56:54.871Z,95436.63
2019-02-02T03:59:26.957Z,95429.65
2019-02-02T04:01:59.008Z,95406.84
2019-02-02T04:04:31.105Z,95408.52
2019-02-02T04:07:03.289Z,95417.02
2019-02-02T04:09:33.707Z,95426.98
2019-02-02T04:12:05.790Z,95433.34
2019-02-02T04:14:37.891Z,95430.38
2019-02-02T04:17:10.296Z,95431.22
2019-02-02T04:19:42.278Z,95449.09
2019-02-02T04:22:12.711Z,95457.26
2019-02-02T04:24:44.888Z,95446.80
2019-02-02T04:27:17.120Z,95446.72
2019-02-02T04:29:49.109Z,95448.89
2019-02-02T04:32:19.645Z,95466.02
2019-02-02T04:34:51.713Z,95460.77
2019-02-02T04:37:23.869Z,95447.44
2019-02-02T04:39:55.948Z,95447.83
2019-02-02T04:42:27.952Z,95437.98
2019-02-02T04:45:00.238Z,95459.92
2019-02-02T04:47:30.710Z,95459.92
2019-02-02T04:50:02.745Z,95462.62
2019-02-02T04:52:35.116Z,95457.27
2019-02-02T04:55:07.699Z,95476.66
2019-02-02T04:57:39.767Z,95476.66
2019-02-02T05:00:16.774Z,95473.53
2019-02-02T05:02:48.885Z,95491.31
2019-02-02T05:05:21.346Z,95502.58
2019-02-02T05:07:53.304Z,95492.47
2019-02-02T05:10:25.703Z,95493.09
2019-02-02T05:12:57.915Z,95500.05
2019-02-02T05:15:30.120Z,95509.08
2019-02-02T05:18:02.289Z,95493.76
2019-02-02T05:20:33.064Z,95485.16
2019-02-02T05:23:05.248Z,95483.45
2019-02-02T05:25:35.870Z,95480.78
2019-02-02T05:28:07.954Z,95487.61
2019-02-02T05:30:39.962Z,95493.70
2019-02-02T05:33:12.126Z,95484.39
2019-02-02T05:35:42.821Z,95488.22
2019-02-02T05:38:15.268Z,95486.59
2019-02-02T05:40:46.289Z,95476.27
2019-02-02T05:43:18.303Z,95482.50
2019-02-02T05:45:50.346Z,95500.53
2019-02-02T05:48:20.882Z,95493.49
2019-02-02T05:50:52.951Z,95496.23
2019-02-02T05:53:24.956Z,95491.23
2019-02-02T05:55:56.957Z,95496.50
2019-02-02T05:58:28.957Z,95492.89
2019-02-02T06:01:01.306Z,95503.20
2019-02-02T06:03:32.018Z,95507.31
2019-02-02T06:06:04.115Z,95507.31
2019-02-02T06:08:36.283Z,95510.33
2019-02-02T06:11:07.025Z,95513.67
2019-02-02T06:13:37.625Z,95504.23
2019-02-02T06:16:09.706Z,95504.23
2019-02-02T06:18:41.948Z,95504.44
2019-02-02T06:21:13.946Z,95497.16
2019-02-02T06:23:45.951Z,95502.22
2019-02-02T06:26:18.118Z,95510.09
2019-02-02T06:28:50.287Z,95514.28
2019-02-02T06:31:21.044Z,95524.05
2019-02-02T06:33:53.119Z,95521.38
2019-02-02T06:36:23.885Z,95521.38
2019-02-02T06:38:56.067Z,95537.03
2019-02-02T06:41:28.100Z,95539.23
2019-02-02T06:44:00.284Z,95549.84
2019-02-02T06:49:01.565Z,95565.98
2019-02-02T06:51:33.801Z,95563.72
2019-02-02T06:54:06.299Z,95568.48
2019-02-02T06:56:38.271Z,95561.31
2019-02-02T06:59:10.256Z,95566.50
2019-02-02T07:01:42.345Z,95560.64
2019-02-02T07:04:13.004Z,95560.64
2019-02-02T07:06:45.264Z,95557.91
2019-02-02T07:09:16.011Z,95566.18
2019-02-02T07:11:48.029Z,95590.40
2019-02-02T07:14:20.272Z,95584.50
2019-02-02T07:16:51.026Z,95595.59
2019-02-02T07:19:23.104Z,95599.98
2019-02-02T07:21:53.785Z,95611.53
2019-02-02T07:24:25.936Z,95607.84
2019-02-02T07:26:57.951Z,95618.75
2019-02-02T07:29:30.132Z,95614.53
2019-02-02T07:32:02.281Z,95613.81
2019-02-02T07:34:34.302Z,95604.09
2019-02-02T07:37:06.347Z,95610.61
2019-02-02T07:39:36.864Z,95616.80
2019-02-02T07:42:09.286Z,95615.83
2019-02-02T07:44:40.023Z,95620.55
2019-02-02T07:47:12.086Z,95612.34
2019-02-02T07:49:44.281Z,95604.75
2019-02-02T07:52:16.275Z,95591.34
2019-02-02T07:54:47.010Z,95587.59
2019-02-02T07:57:19.077Z,95603.87
2019-02-02T07:59:51.421Z,95611.38
2019-02-02T08:02:23.753Z,95628.14
2019-02-02T08:04:55.895Z,95628.14
2019-02-02T08:07:27.950Z,95633.70
2019-02-02T08:09:59.956Z,95645.05
2019-02-02T08:12:31.958Z,95647.80
2019-02-02T08:15:04.276Z,95658.45
2019-02-02T08:17:34.823Z,95669.17
2019-02-02T08:20:08.954Z,95668.95
2019-02-02T08:22:40.950Z,95677.25
2019-02-02T08:25:14.272Z,95681.86
2019-02-02T08:27:44.866Z,95691.80
2019-02-02T08:30:20.656Z,95692.82
2019-02-02T08:32:52.956Z,95692.82
2019-02-02T08:35:25.274Z,95689.56
2019-02-02T08:37:56.102Z,95692.47
2019-02-02T08:40:27.017Z,95699.97
2019-02-02T08:42:58.948Z,95695.91
2019-02-02T08:45:30.991Z,95698.95
2019-02-02T08:48:03.133Z,95700.84
2019-02-02T08:50:38.576Z,95708.23
2019-02-02T08:53:10.700Z,95710.44
2019-02-02T08:55:42.914Z,95712.32
2019-02-02T08:58:15.016Z,95718.20
2019-02-02T09:00:45.673Z,95713.36
2019-02-02T09:03:18.420Z,95705.51
2019-02-02T09:05:51.118Z,95720.55
2019-02-02T09:08:23.337Z,95711.44
2019-02-02T09:10:55.339Z,95721.38
2019-02-02T09:13:27.280Z,95721.38
2019-02-02T09:15:57.992Z,95715.97
2019-02-02T09:18:30.114Z,95708.06
2019-02-02T09:21:02.308Z,95712.86
2019-02-02T09:23:32.998Z,95714.59
2019-02-02T09:26:05.106Z,95722.11
2019-02-02T09:28:37.988Z,95716.99
2019-02-02T09:31:15.840Z,95725.89
2019-02-02T09:33:43.932Z,95728.27
2019-02-02T09:36:16.942Z,95734.98
2019-02-02T09:38:49.283Z,95727.47
2019-02-02T09:41:19.864Z,95731.44
2019-02-02T09:43:51.925Z,95735.41
2019-02-02T09:46:23.953Z,95732.38
2019-02-02T09:48:57.928Z,95727.88
2019-02-02T09:51:29.955Z,95730.28
2019-02-02T09:54:02.114Z,95731.78
2019-02-02T09:56:32.683Z,95736.28
2019-02-02T09:59:04.908Z,95739.72
2019-02-02T10:01:37.074Z,95730.06
2019-02-02T10:04:09.281Z,95734.23
2019-02-02T10:06:39.847Z,95734.86
2019-02-02T10:09:12.791Z,95736.70
2019-02-02T10:11:45.119Z,95737.31
2019-02-02T10:14:17.107Z,95738.42
2019-02-02T10:16:49.128Z,95740.27
2019-02-02T10:19:19.643Z,95733.22
2019-02-02T10:21:51.740Z,95727.05
2019-02-02T10:24:23.785Z,95733.97
2019-02-02T10:26:55.891Z,95730.73
2019-02-02T10:29:27.945Z,95731.22
2019-02-02T10:31:59.941Z,95741.63
2019-02-02T10:34:31.943Z,95752.50
2019-02-02T10:37:03.948Z,95760.45
2019-02-02T10:39:35.929Z,95764.56
2019-02-02T10:42:07.948Z,95785.12
2019-02-02T10:44:39.940Z,95779.16
2019-02-02T10:47:11.940Z,95784.99
2019-02-02T10:49:43.926Z,95786.23
2019-02-02T10:52:16.184Z,95783.97
2019-02-02T10:54:46.840Z,95780.73
2019-02-02T10:57:18.896Z,95779.25
2019-02-02T11:01:51.765Z,95772.66
2019-02-02T11:04:23.925Z,95772.66
2019-02-02T11:06:56.017Z,95772.86
2019-02-02T11:09:28.181Z,95769.18
2019-02-02T11:12:00.311Z,95770.80
2019-02-02T11:14:32.340Z,95769.03
2019-02-02T11:17:04.442Z,95773.84
2019-02-02T11:19:36.715Z,95796.48
2019-02-02T11:22:08.908Z,95796.48
2019-02-02T11:24:41.068Z,95808.13
2019-02-02T11:27:13.112Z,95813.39
2019-02-02T11:29:43.907Z,95819.94
2019-02-02T11:32:16.236Z,95825.09
2019-02-02T11:34:48.050Z,95829.27
2019-02-02T11:37:20.118Z,95826.83
2019-02-02T11:39:52.204Z,95829.49
2019-02-02T11:42:24.104Z,95828.74
2019-02-02T11:44:54.841Z,95826.14
2019-02-02T11:47:26.966Z,95826.14
2019-02-02T11:49:59.103Z,95833.39
2019-02-02T11:52:31.268Z,95824.84
2019-02-02T11:55:01.636Z,95821.56
2019-02-02T11:57:33.688Z,95819.39
2019-02-02T12:00:08.742Z,95819.94
2019-02-02T12:02:49.032Z,95815.12
2019-02-02T12:05:14.737Z,95823.22
2019-02-02T12:07:46.914Z,95826.90
2019-02-02T12:10:21.515Z,95833.57
2019-02-02T12:12:53.634Z,95843.41
2019-02-02T12:15:26.276Z,95843.41
2019-02-02T12:17:57.284Z,95836.30
2019-02-02T12:20:27.852Z,95843.08
2019-02-02T12:22:59.940Z,95843.08
2019-02-02T12:25:31.947Z,95858.95
2019-02-02T12:28:04.125Z,95862.37
2019-02-02T12:30:36.276Z,95865.80
2019-02-02T12:33:08.890Z,95871.83
2019-02-02T12:35:40.947Z,95877.41
2019-02-02T12:38:13.123Z,95883.62
2019-02-02T12:40:43.911Z,95887.07
2019-02-02T12:43:15.960Z,95891.37
2019-02-02T12:45:54.327Z,95891.19
2019-02-02T12:48:26.302Z,95893.42
2019-02-02T12:50:57.041Z,95901.86
2019-02-02T12:53:29.092Z,95893.84
2019-02-02T12:55:59.866Z,95882.97
2019-02-02T12:58:31.941Z,95875.14
2019-02-02T13:01:04.270Z,95882.61
2019-02-02T13:03:35.108Z,95880.91
2019-02-02T13:06:07.782Z,95880.91
2019-02-02T13:08:39.885Z,95893.81
2019-02-02T13:11:11.941Z,95904.84
2019-02-02T13:13:44.118Z,95906.27
2019-02-02T13:16:16.249Z,95908.20
2019-02-02T13:18:46.994Z,95904.83
2019-02-02T13:21:19.282Z,95902.58
2019-02-02T13:23:49.863Z,95911.06
2019-02-02T13:26:21.944Z,95920.00
2019-02-02T13:28:55.414Z,95933.78
2019-02-02T13:31:27.693Z,95933.55
2019-02-02T13:33:59.837Z,95928.36
2019-02-02T13:36:31.947Z,95932.59
2019-02-02T13:39:04.933Z,95935.61
2019-02-02T13:41:37.075Z,95943.84
2019-02-02T13:44:09.128Z,95953.05
2019-02-02T13:46:39.824Z,95947.84
2019-02-02T13:49:11.897Z,95941.51
2019-02-02T13:51:44.139Z,95947.84
2019-02-02T13:54:16.122Z,95949.83
2019-02-02T13:56:49.909Z,95944.39
2019-02-02T13:59:22.284Z,95938.86
2019-02-02T14:01:54.296Z,95943.05
2019-02-02T14:04:26.371Z,95944.67
2019-02-02T14:06:58.326Z,95938.58
2019-02-02T14:09:30.503Z,95939.66
2019-02-02T14:12:02.695Z,95942.08
2019-02-02T14:14:34.941Z,95946.73
2019-02-02T14:17:07.098Z,95960.63
2019-02-02T14:19:39.136Z,95969.06
2019-02-02T14:22:09.854Z,95967.16
2019-02-02T14:24:41.956Z,95977.22
2019-02-02T14:27:14.310Z,95970.30
2019-02-02T14:29:46.358Z,95982.84
2019-02-02T14:32:19.947Z,95992.61
2019-02-02T14:34:51.943Z,95999.20
2019-02-02T14:37:23.959Z,96004.78
2019-02-02T14:39:55.954Z,96008.89
2019-02-02T14:42:28.117Z,96015.60
2019-02-02T14:44:58.861Z,96020.03
2019-02-02T14:47:30.968Z,96016.08
2019-02-02T14:50:03.221Z,96023.37
2019-02-02T14:52:37.337Z,96016.20
2019-02-02T14:55:11.478Z,96026.84
2019-02-02T14:57:43.658Z,96044.23
2019-02-02T15:00:19.736Z,96044.23
2019-02-02T15:02:51.888Z,96043.41
2019-02-02T15:05:23.937Z,96040.44
2019-02-02T15:07:56.396Z,96035.49
2019-02-02T15:10:28.662Z,96052.83
2019-02-02T15:13:00.938Z,96052.83
2019-02-02T15:15:33.279Z,96061.29
2019-02-02T15:18:03.868Z,96067.77
2019-02-02T15:20:38.344Z,96070.86
2019-02-02T15:23:10.747Z,96085.49
2019-02-02T15:25:43.084Z,96092.25
2019-02-02T15:28:15.356Z,96087.53
2019-02-02T15:30:48.289Z,96096.88
2019-02-02T15:33:18.724Z,96111.34
2019-02-02T15:35:51.297Z,96110.67
2019-02-02T15:38:23.380Z,96105.78
2019-02-02T15:40:59.210Z,96116.30
2019-02-02T15:43:28.998Z,96134.44
2019-02-02T15:46:01.294Z,96135.15
2019-02-02T15:48:33.293Z,96135.15
2019-02-02T15:51:03.819Z,96140.06
2019-02-02T15:53:35.884Z,96142.95
2019-02-02T15:56:08.279Z,96138.70
2019-02-02T15:58:38.812Z,96144.32
2019-02-02T16:01:10.888Z,96144.57
2019-02-02T16:03:49.708Z,96148.23
2019-02-02T16:06:17.294Z,96147.94
2019-02-02T16:08:49.370Z,96153.47
2019-02-02T16:11:20.377Z,96157.58
2019-02-02T16:13:52.755Z,96173.59
2019-02-02T16:16:25.261Z,96174.72
2019-02-02T16:18:56.068Z,96177.16
2019-02-02T16:21:28.301Z,96182.02
2019-02-02T16:23:59.028Z,96185.06
2019-02-02T16:26:31.314Z,96198.76
2019-02-02T16:29:02.059Z,96191.16
2019-02-02T16:31:34.291Z,96189.94
2019-02-02T16:34:05.017Z,96191.80
2019-02-02T16:36:37.284Z,96195.77
2019-02-02T16:39:11.137Z,96200.44
2019-02-02T16:41:43.309Z,96202.72
2019-02-02T16:44:14.106Z,96209.12
2019-02-02T16:46:46.364Z,96218.44
2019-02-02T16:49:18.390Z,96218.44
2019-02-02T16:51:50.672Z,96225.81
2019-02-02T16:54:23.067Z,96225.81
2019-02-02T16:56:55.283Z,96237.94
2019-02-02T16:59:26.067Z,96247.38
2019-02-02T17:01:58.440Z,96252.41
2019-02-02T17:04:30.794Z,96257.43
2019-02-02T17:07:03.137Z,96257.43
2019-02-02T17:09:35.299Z,96254.42
2019-02-02T17:12:06.642Z,96266.91
2019-02-02T17:14:39.283Z,96266.91
2019-02-02T17:17:10.027Z,96272.23
2019-02-02T17:19:42.296Z,96270.58
2019-02-02T17:22:14.539Z,96270.58
2019-02-02T17:24:46.882Z,96273.22
2019-02-02T17:27:19.276Z,96273.27
2019-02-02T17:29:49.881Z,96290.98
2019-02-02T17:32:22.280Z,96303.66
2019-02-02T17:34:53.107Z,96294.88
2019-02-02T17:38:41.292Z,96292.06
2019-02-02T17:41:12.115Z,96301.99
2019-02-02T17:43:44.482Z,96300.51
2019-02-02T17:46:16.670Z,96311.66
2019-02-02T17:48:48.951Z,96312.11
2019-02-02T17:51:20.917Z,96312.11
2019-02-02T17:53:53.110Z,96317.59
2019-02-02T17:56:23.673Z,96329.27
2019-02-02T17:58:55.926Z,96328.33
2019-02-02T18:01:28.128Z,96331.38
2019-02-02T18:04:00.241Z,96350.94
2019-02-02T18:06:32.177Z,96350.94
2019-02-02T18:09:02.821Z,96353.38
2019-02-02T18:11:34.939Z,96348.53
2019-02-02T18:14:07.139Z,96362.23
2019-02-02T18:16:39.260Z,96370.58
2019-02-02T18:19:11.275Z,96370.58
2019-02-02T18:21:44.289Z,96379.23
2019-02-02T18:24:15.301Z,96371.61
2019-02-02T18:26:47.733Z,96384.98
2019-02-02T18:29:20.299Z,96374.63
2019-02-02T18:31:51.434Z,96379.23
2019-02-02T18:34:23.679Z,96378.69
2019-02-02T18:36:57.742Z,96378.69
2019-02-02T18:39:30.514Z,96376.86
2019-02-02T18:42:03.096Z,96376.86
2019-02-02T18:44:34.039Z,96374.45
2019-02-02T18:47:05.016Z,96386.94
2019-02-02T18:49:37.355Z,96386.66
2019-02-02T18:52:09.340Z,96396.41
2019-02-02T18:54:41.423Z,96391.53
2019-02-02T18:57:13.858Z,96396.37
2019-02-02T18:59:46.110Z,96396.37
2019-02-02T19:02:17.071Z,96400.94
2019-02-02T19:04:49.373Z,96403.84
2019-02-02T19:07:21.491Z,96404.72
2019-02-02T19:09:53.883Z,96410.47
2019-02-02T19:12:26.272Z,96410.47
2019-02-02T19:17:42.956Z,96427.41
2019-02-02T19:20:18.418Z,96427.41
2019-02-02T19:22:50.952Z,96429.39
2019-02-02T19:25:23.292Z,96429.69
2019-02-02T19:27:54.117Z,96423.02
2019-02-02T19:30:34.023Z,96428.68
2019-02-02T19:33:06.305Z,96438.88
2019-02-02T19:35:38.921Z,96436.03
2019-02-02T19:38:11.387Z,96433.95
2019-02-02T19:40:43.800Z,96430.73
2019-02-02T19:43:15.950Z,96430.73
2019-02-02T19:45:48.252Z,96432.98
2019-02-02T19:48:19.243Z,96433.45
2019-02-02T19:50:51.557Z,96435.91
2019-02-02T19:53:23.968Z,96445.62
2019-02-02T19:55:56.276Z,96459.31
2019-02-02T19:58:27.039Z,96464.95
2019-02-02T20:00:59.521Z,96472.11
2019-02-02T20:03:31.886Z,96477.88
2019-02-02T20:06:04.314Z,96476.80
2019-02-02T20:08:36.472Z,96485.59
2019-02-02T20:11:08.875Z,96481.80
2019-02-02T20:13:41.250Z,96482.41
2019-02-02T20:16:12.135Z,96496.55
2019-02-02T20:18:44.288Z,96496.69
2019-02-02T20:21:16.248Z,96505.23
2019-02-02T20:23:46.836Z,96518.82
2019-02-02T20:26:18.937Z,96519.74
2019-02-02T20:28:50.936Z,96521.55
2019-02-02T20:31:22.941Z,96523.81
2019-02-02T20:33:54.930Z,96516.22
2019-02-02T20:36:26.931Z,96519.89
2019-02-02T20:38:58.944Z,96530.66
2019-02-02T20:41:30.939Z,96532.83
2019-02-02T20:44:02.965Z,96527.20
2019-02-02T20:46:35.241Z,96536.78
2019-02-02T20:49:07.949Z,96535.98
2019-02-02T20:51:39.567Z,96541.03
2019-02-02T20:54:11.882Z,96548.80
2019-02-02T20:56:42.783Z,96555.48
2019-02-02T20:59:15.061Z,96565.23
2019-02-02T21:01:46.436Z,96571.90
2019-02-02T21:04:18.853Z,96575.25
2019-02-02T21:06:51.257Z,96575.25
2019-02-02T21:09:22.079Z,96575.09
2019-02-02T21:11:56.992Z,96591.39
2019-02-02T21:14:26.757Z,96593.06
2019-02-02T21:16:59.295Z,96590.02
2019-02-02T21:19:31.962Z,96603.87
2019-02-02T21:22:04.307Z,96611.48
2019-02-02T21:24:36.380Z,96611.33
2019-02-02T21:27:08.600Z,96611.05
2019-02-02T21:29:41.311Z,96611.05
2019-02-02T21:32:13.353Z,96589.89
2019-02-02T21:34:46.293Z,96594.61
2019-02-02T21:37:18.563Z,96594.61
2019-02-02T21:39:50.873Z,96600.08
2019-02-02T21:42:23.000Z,96592.48
2019-02-02T21:44:57.399Z,96582.59
2019-02-02T21:47:29.318Z,96573.17
2019-02-02T21:50:00.072Z,96573.17
2019-02-02T21:52:31.040Z,96579.57
2019-02-02T21:55:03.274Z,96579.58
2019-02-02T21:57:35.375Z,96583.97
2019-02-02T22:00:23.409Z,96582.60
2019-02-02T22:02:55.782Z,96596.78
2019-02-02T22:05:31.111Z,96596.78
2019-02-02T22:08:03.268Z,96610.15
2019-02-02T22:10:33.862Z,96624.45
2019-02-02T22:13:06.893Z,96626.74
2019-02-02T22:15:39.077Z,96632.83
2019-02-02T22:18:11.275Z,96641.81
2019-02-02T22:20:43.304Z,96644.55
2019-02-02T22:23:15.692Z,96657.33
2019-02-02T22:25:48.273Z,96675.73
2019-02-02T22:28:20.266Z,96688.51
2019-02-02T22:30:51.235Z,96690.92
2019-02-02T22:33:21.881Z,96712.52
2019-02-02T22:35:54.303Z,96716.33
2019-02-02T22:38:26.350Z,96711.14
2019-02-02T22:40:58.285Z,96729.22
2019-02-02T22:43:30.335Z,96729.22
2019-02-02T22:46:03.003Z,96733.64
2019-02-02T22:48:35.270Z,96733.64
2019-02-02T22:51:06.054Z,96743.66
2019-02-02T22:53:38.284Z,96745.19
2019-02-02T22:56:10.275Z,96750.64
2019-02-02T22:58:40.861Z,96759.31
2019-02-02T23:01:39.469Z,96761.90
2019-02-02T23:04:49.769Z,96762.37
2019-02-02T23:08:01.691Z,96764.19
2019-02-02T23:11:33.877Z,96748.52
2019-02-02T23:14:59.330Z,96741.06
2019-02-02T23:17:31.615Z,96751.58
2019-02-02T23:20:03.954Z,96751.58
2019-02-02T23:22:36.074Z,96741.19
2019-02-02T23:25:08.784Z,96741.19
2019-02-02T23:27:40.951Z,96736.15
2019-02-02T23:30:14.754Z,96731.12
2019-02-02T23:32:46.873Z,96731.43
2019-02-02T23:35:18.950Z,96734.61
2019-02-02T23:40:50.696Z,96729.75
2019-02-02T23:43:22.895Z,96729.75
2019-02-02T23:45:54.957Z,96739.05
2019-02-02T23:48:27.087Z,96741.80
2019-02-02T23:50:59.350Z,96748.97
2019-02-02T23:53:31.324Z,96757.83
2019-02-02T23:56:03.352Z,96757.83
2019-02-02T23:58:34.040Z,96757.83
